createdAt,value
2018-08-17T00:02:13.903Z,90.70
2018-08-17T00:04:42.217Z,90.50
2018-08-17T00:07:10.416Z,90.90
2018-08-17T00:09:39.243Z,91.30
2018-08-17T00:12:07.491Z,91.50
2018-08-17T00:14:36.042Z,92.50
2018-08-17T00:17:04.599Z,92.50
2018-08-17T00:19:32.929Z,92.80
2018-08-17T00:22:01.451Z,93.10
2018-08-17T00:24:30.439Z,93.30
2018-08-17T00:26:58.681Z,93.60
2018-08-17T00:29:27.515Z,94.50
2018-08-17T00:31:56.126Z,96.40
2018-08-17T00:34:24.290Z,95.90
2018-08-17T00:36:52.755Z,96.20
2018-08-17T00:39:21.630Z,95.90
2018-08-17T00:41:49.685Z,96.00
2018-08-17T00:44:18.228Z,96.70
2018-08-17T00:46:46.700Z,97.20
2018-08-17T00:49:15.454Z,97.30
2018-08-17T00:51:44.259Z,97.10
2018-08-17T00:54:13.013Z,97.50
2018-08-17T00:56:41.794Z,98.50
2018-08-17T00:59:10.228Z,98.20
2018-08-17T01:01:38.386Z,99.90
2018-08-17T01:04:06.495Z,99.90
2018-08-17T01:06:34.925Z,99.90
2018-08-17T01:09:04.804Z,99.90
2018-08-17T01:11:33.643Z,99.90
2018-08-17T01:14:02.062Z,99.90
2018-08-17T01:16:30.145Z,99.90
2018-08-17T01:18:58.243Z,99.90
2018-08-17T01:21:26.998Z,99.90
2018-08-17T01:23:55.412Z,99.90
2018-08-17T01:26:25.111Z,99.90
2018-08-17T01:28:54.174Z,99.90
2018-08-17T01:31:22.443Z,99.90
2018-08-17T01:33:51.230Z,99.90
2018-08-17T01:36:19.656Z,99.90
2018-08-17T01:38:48.476Z,99.90
2018-08-17T01:41:17.222Z,99.90
2018-08-17T01:43:45.972Z,99.90
2018-08-17T01:46:14.810Z,99.90
2018-08-17T01:48:43.777Z,99.90
2018-08-17T01:51:12.575Z,99.90
2018-08-17T01:53:41.023Z,99.90
2018-08-17T01:56:09.799Z,99.90
2018-08-17T01:58:38.618Z,99.90
2018-08-17T02:01:07.400Z,99.90
2018-08-17T02:03:36.155Z,99.90
2018-08-17T02:06:04.318Z,99.90
2018-08-17T02:08:32.835Z,99.90
2018-08-17T02:11:01.333Z,99.90
2018-08-17T02:13:30.179Z,99.90
2018-08-17T02:15:58.970Z,99.90
2018-08-17T02:18:27.785Z,99.90
2018-08-17T02:20:56.246Z,99.90
2018-08-17T02:23:25.001Z,99.90
2018-08-17T02:25:53.792Z,99.90
2018-08-17T02:28:23.770Z,99.90
2018-08-17T02:30:52.475Z,99.90
2018-08-17T02:33:20.943Z,99.90
2018-08-17T02:35:49.388Z,99.90
2018-08-17T02:38:18.020Z,99.90
2018-08-17T02:40:46.789Z,99.90
2018-08-17T02:43:15.285Z,99.90
2018-08-17T02:45:43.792Z,99.90
2018-08-17T02:48:12.631Z,99.90
2018-08-17T02:50:41.408Z,99.90
2018-08-17T02:53:10.093Z,99.90
2018-08-17T02:55:38.900Z,99.90
2018-08-17T02:58:07.305Z,99.90
2018-08-17T03:00:36.040Z,99.90
2018-08-17T03:03:04.443Z,99.90
2018-08-17T03:05:32.920Z,99.90
2018-08-17T03:08:01.650Z,99.90
2018-08-17T03:10:30.087Z,99.90
2018-08-17T03:12:58.813Z,99.90
2018-08-17T03:15:27.247Z,99.90
2018-08-17T03:17:55.959Z,99.90
2018-08-17T03:20:24.762Z,99.90
2018-08-17T03:22:53.478Z,99.90
2018-08-17T03:25:21.570Z,99.90
2018-08-17T03:27:49.766Z,99.90
2018-08-17T03:30:17.928Z,99.90
2018-08-17T03:32:46.389Z,99.90
2018-08-17T03:35:14.493Z,99.90
2018-08-17T03:37:43.294Z,99.90
2018-08-17T03:40:12.082Z,99.90
2018-08-17T03:42:40.607Z,99.90
2018-08-17T03:45:09.097Z,99.90
2018-08-17T03:47:37.885Z,99.90
2018-08-17T03:50:06.507Z,99.90
2018-08-17T03:52:35.385Z,99.90
2018-08-17T03:55:03.515Z,99.90
2018-08-17T03:57:32.235Z,99.90
2018-08-17T04:00:01.005Z,99.90
2018-08-17T04:02:29.706Z,99.90
2018-08-17T04:04:58.395Z,99.90
2018-08-17T04:07:27.259Z,99.90
2018-08-17T04:09:55.794Z,99.90
2018-08-17T04:12:24.594Z,99.90
2018-08-17T04:14:53.084Z,99.90
2018-08-17T04:17:21.916Z,99.90
2018-08-17T04:19:50.699Z,99.90
2018-08-17T04:22:19.957Z,99.90
2018-08-17T04:24:48.706Z,99.90
2018-08-17T04:27:17.169Z,99.90
2018-08-17T04:29:46.042Z,99.90
2018-08-17T04:32:14.841Z,99.90
2018-08-17T04:34:43.275Z,99.90
2018-08-17T04:37:12.011Z,99.90
2018-08-17T04:39:40.746Z,99.90
2018-08-17T04:42:09.134Z,99.90
2018-08-17T04:44:37.643Z,99.90
2018-08-17T04:47:06.420Z,99.90
2018-08-17T04:49:35.296Z,99.90
2018-08-17T04:52:03.661Z,99.90
2018-08-17T04:54:32.417Z,99.90
2018-08-17T04:57:00.822Z,99.90
2018-08-17T04:59:29.730Z,99.90
2018-08-17T05:01:58.504Z,99.90
2018-08-17T05:04:27.228Z,99.90
2018-08-17T05:06:55.714Z,99.90
2018-08-17T05:09:24.514Z,99.90
2018-08-17T05:11:53.126Z,99.90
2018-08-17T05:14:21.592Z,99.90
2018-08-17T05:16:50.631Z,99.90
2018-08-17T05:19:19.088Z,99.90
2018-08-17T05:21:47.860Z,99.90
2018-08-17T05:24:16.974Z,99.90
2018-08-17T05:26:45.811Z,99.90
2018-08-17T05:29:14.322Z,99.90
2018-08-17T05:31:42.730Z,99.90
2018-08-17T05:34:10.858Z,99.90
2018-08-17T05:36:39.566Z,99.90
2018-08-17T05:39:08.674Z,99.90
2018-08-17T05:41:37.500Z,99.90
2018-08-17T05:44:05.637Z,99.90
2018-08-17T05:46:34.080Z,99.90
2018-08-17T05:49:02.578Z,99.90
2018-08-17T05:51:31.174Z,99.90
2018-08-17T05:53:59.998Z,99.90
2018-08-17T05:56:28.903Z,99.90
2018-08-17T05:58:57.491Z,99.90
2018-08-17T06:01:25.737Z,99.90
2018-08-17T06:03:54.155Z,99.90
2018-08-17T06:06:22.255Z,99.90
2018-08-17T06:08:50.779Z,99.90
2018-08-17T06:11:19.892Z,99.90
2018-08-17T06:13:48.084Z,99.90
2018-08-17T06:16:16.539Z,99.80
2018-08-17T06:18:44.650Z,98.00
2018-08-17T06:21:13.077Z,98.20
2018-08-17T06:23:41.493Z,96.30
2018-08-17T06:26:09.923Z,95.50
2018-08-17T06:28:38.693Z,93.70
2018-08-17T06:31:07.504Z,93.00
2018-08-17T06:33:36.022Z,93.10
2018-08-17T06:36:04.241Z,92.10
2018-08-17T06:38:32.868Z,91.90
2018-08-17T06:41:01.287Z,90.40
2018-08-17T06:43:29.489Z,90.00
2018-08-17T06:45:57.570Z,88.70
2018-08-17T06:48:26.037Z,84.80
2018-08-17T06:50:54.352Z,83.70
2018-08-17T06:53:22.923Z,81.60
2018-08-17T06:55:51.726Z,79.80
2018-08-17T06:58:20.478Z,77.70
2018-08-17T07:00:48.985Z,73.70
2018-08-17T07:03:17.801Z,74.40
2018-08-17T07:05:46.290Z,73.90
2018-08-17T07:08:14.400Z,71.20
2018-08-17T07:10:42.516Z,71.80
2018-08-17T07:13:10.981Z,68.80
2018-08-17T07:15:39.427Z,68.70
2018-08-17T07:18:07.876Z,67.90
2018-08-17T07:20:36.003Z,66.40
2018-08-17T07:23:04.458Z,64.70
2018-08-17T07:25:32.586Z,62.90
2018-08-17T07:28:01.338Z,64.20
2018-08-17T07:30:30.299Z,62.70
2018-08-17T07:32:59.081Z,63.20
2018-08-17T07:35:27.568Z,61.50
2018-08-17T07:37:56.048Z,59.70
2018-08-17T07:40:24.911Z,59.30
2018-08-17T07:42:53.629Z,57.60
2018-08-17T07:45:22.077Z,56.90
2018-08-17T07:47:50.559Z,56.10
2018-08-17T07:50:20.340Z,55.10
2018-08-17T07:52:49.213Z,54.70
2018-08-17T07:55:17.993Z,53.40
2018-08-17T07:57:46.993Z,54.40
2018-08-17T08:00:15.430Z,53.30
2018-08-17T08:02:43.582Z,52.00
2018-08-17T08:05:12.455Z,51.90
2018-08-17T08:07:40.921Z,51.50
2018-08-17T08:10:09.888Z,51.40
2018-08-17T08:12:38.552Z,50.50
2018-08-17T08:15:06.860Z,50.80
2018-08-17T08:17:35.806Z,49.40
2018-08-17T08:20:15.591Z,50.00
2018-08-17T08:22:44.399Z,49.10
2018-08-17T08:25:13.161Z,48.40
2018-08-17T08:27:41.705Z,47.80
2018-08-17T08:30:09.780Z,47.30
2018-08-17T08:32:37.859Z,47.30
2018-08-17T08:35:07.087Z,46.30
2018-08-17T08:37:35.553Z,45.60
2018-08-17T08:40:03.741Z,44.50
2018-08-17T08:42:32.277Z,45.40
2018-08-17T08:45:01.034Z,45.00
2018-08-17T08:47:29.464Z,44.90
2018-08-17T08:49:57.501Z,45.40
2018-08-17T08:52:26.263Z,45.90
2018-08-17T08:54:54.503Z,45.00
2018-08-17T08:57:23.257Z,44.00
2018-08-17T08:59:51.728Z,43.50
2018-08-17T09:02:20.501Z,43.50
2018-08-17T09:04:49.279Z,43.70
2018-08-17T09:07:17.360Z,42.60
2018-08-17T09:09:45.743Z,41.90
2018-08-17T09:12:14.516Z,42.40
2018-08-17T09:14:42.995Z,42.10
2018-08-17T09:17:11.753Z,41.70
2018-08-17T09:19:40.182Z,41.00
2018-08-17T09:22:08.997Z,41.20
2018-08-17T09:24:37.238Z,40.30
2018-08-17T09:27:06.298Z,40.70
2018-08-17T09:29:35.176Z,40.30
2018-08-17T09:32:03.600Z,39.70
2018-08-17T09:34:32.446Z,38.50
2018-08-17T09:37:00.947Z,38.00
2018-08-17T09:39:29.638Z,37.90
2018-08-17T09:41:58.593Z,37.80
2018-08-17T09:44:27.249Z,37.10
2018-08-17T09:46:55.678Z,37.20
2018-08-17T09:49:24.168Z,38.50
2018-08-17T09:51:52.921Z,38.00
2018-08-17T09:54:21.665Z,38.50
2018-08-17T09:56:50.422Z,37.60
2018-08-17T09:59:19.224Z,37.40
2018-08-17T10:01:52.996Z,36.60
2018-08-17T10:04:26.931Z,36.30
2018-08-17T10:07:01.310Z,36.20
2018-08-17T10:09:35.562Z,36.30
2018-08-17T10:12:04.191Z,36.50
2018-08-17T10:14:33.000Z,35.90
2018-08-17T10:17:01.843Z,35.80
2018-08-17T10:19:30.668Z,36.40
2018-08-17T10:21:59.283Z,36.50
2018-08-17T10:24:27.782Z,36.00
2018-08-17T10:26:56.230Z,36.30
2018-08-17T10:29:24.750Z,36.10
2018-08-17T10:31:53.201Z,36.00
2018-08-17T10:34:21.938Z,35.40
2018-08-17T10:36:50.393Z,34.60
2018-08-17T10:39:18.826Z,35.30
2018-08-17T10:41:47.236Z,34.50
2018-08-17T10:44:15.392Z,33.80
2018-08-17T10:46:44.196Z,33.50
2018-08-17T10:49:13.044Z,33.60
2018-08-17T10:51:41.673Z,32.50
2018-08-17T10:54:10.418Z,32.60
2018-08-17T10:56:38.538Z,32.50
2018-08-17T10:59:06.616Z,32.90
2018-08-17T11:01:34.742Z,33.60
2018-08-17T11:04:02.876Z,33.60
2018-08-17T11:06:31.770Z,32.60
2018-08-17T11:09:00.249Z,32.60
2018-08-17T11:11:28.745Z,33.20
2018-08-17T11:13:57.169Z,33.70
2018-08-17T11:16:25.927Z,34.80
2018-08-17T11:18:54.370Z,35.50
2018-08-17T11:21:23.122Z,35.00
2018-08-17T11:23:51.914Z,34.00
2018-08-17T11:26:20.002Z,33.00
2018-08-17T11:28:48.768Z,32.90
2018-08-17T11:31:17.191Z,33.60
2018-08-17T11:33:46.023Z,32.80
2018-08-17T11:36:14.798Z,32.20
2018-08-17T11:38:43.619Z,31.70
2018-08-17T11:41:12.879Z,32.00
2018-08-17T11:43:41.741Z,31.70
2018-08-17T11:46:10.532Z,30.70
2018-08-17T11:48:39.323Z,30.10
2018-08-17T11:51:07.437Z,30.20
2018-08-17T11:53:36.049Z,30.80
2018-08-17T11:56:04.587Z,31.10
2018-08-17T11:58:33.003Z,30.70
2018-08-17T12:01:01.463Z,31.30
2018-08-17T12:03:30.054Z,31.90
2018-08-17T12:05:58.839Z,32.70
2018-08-17T12:08:27.666Z,33.50
2018-08-17T12:11:03.831Z,33.90
2018-08-17T12:13:31.942Z,33.00
2018-08-17T12:16:00.691Z,32.30
2018-08-17T12:18:29.475Z,31.40
2018-08-17T12:20:57.933Z,30.70
2018-08-17T12:23:26.196Z,29.70
2018-08-17T12:25:57.018Z,28.90
2018-08-17T12:28:26.732Z,28.40
2018-08-17T12:30:55.166Z,28.10
2018-08-17T12:33:23.611Z,28.80
2018-08-17T12:35:52.271Z,29.10
2018-08-17T12:38:21.002Z,29.60
2018-08-17T12:40:53.738Z,30.80
2018-08-17T12:43:26.291Z,31.20
2018-08-17T12:45:55.115Z,30.50
2018-08-17T12:48:23.874Z,30.40
2018-08-17T12:50:52.406Z,29.00
2018-08-17T12:53:20.594Z,28.20
2018-08-17T12:55:49.022Z,28.60
2018-08-17T12:58:17.823Z,28.30
2018-08-17T13:00:46.237Z,28.20
2018-08-17T13:03:15.035Z,29.80
2018-08-17T13:05:43.470Z,31.60
2018-08-17T13:08:11.601Z,32.30
2018-08-17T13:10:39.683Z,31.10
2018-08-17T13:13:09.447Z,30.40
2018-08-17T13:15:40.122Z,30.80
2018-08-17T13:18:14.653Z,32.10
2018-08-17T13:20:43.570Z,33.60
2018-08-17T13:23:12.573Z,33.30
2018-08-17T13:25:42.138Z,32.30
2018-08-17T13:28:10.965Z,30.50
2018-08-17T13:30:39.473Z,30.00
2018-08-17T13:33:07.630Z,29.20
2018-08-17T13:35:35.803Z,29.20
2018-08-17T13:38:03.989Z,28.90
2018-08-17T13:40:32.728Z,28.60
2018-08-17T13:43:00.835Z,28.70
2018-08-17T13:45:29.670Z,28.00
2018-08-17T13:47:58.511Z,28.10
2018-08-17T13:50:26.658Z,28.10
2018-08-17T13:52:55.187Z,28.40
2018-08-17T13:55:23.288Z,29.90
2018-08-17T13:57:51.897Z,31.70
2018-08-17T14:00:20.363Z,31.80
2018-08-17T14:02:48.840Z,31.20
2018-08-17T14:05:17.575Z,29.70
2018-08-17T14:07:46.402Z,29.60
2018-08-17T14:10:14.802Z,29.00
2018-08-17T14:12:43.644Z,29.60
2018-08-17T14:15:11.721Z,28.90
2018-08-17T14:17:40.146Z,29.00
2018-08-17T14:20:12.878Z,29.20
2018-08-17T14:22:41.541Z,29.80
2018-08-17T14:25:10.483Z,30.90
2018-08-17T14:27:38.595Z,31.40
2018-08-17T14:30:16.145Z,30.50
2018-08-17T14:32:44.742Z,29.30
2018-08-17T14:35:13.565Z,29.20
2018-08-17T14:37:42.192Z,29.90
2018-08-17T14:40:10.827Z,30.10
2018-08-17T14:42:39.971Z,30.00
2018-08-17T14:45:09.364Z,29.90
2018-08-17T14:47:37.844Z,31.00
2018-08-17T14:50:08.385Z,32.30
2018-08-17T14:52:36.830Z,33.50
2018-08-17T14:55:04.954Z,34.80
2018-08-17T14:57:33.788Z,34.80
2018-08-17T15:00:03.785Z,34.30
2018-08-17T15:02:32.587Z,34.40
2018-08-17T15:05:01.310Z,34.80
2018-08-17T15:07:29.769Z,36.50
2018-08-17T15:09:58.572Z,36.50
2018-08-17T15:12:27.622Z,37.00
2018-08-17T15:14:55.761Z,37.50
2018-08-17T15:17:24.538Z,37.90
2018-08-17T15:19:53.343Z,37.50
2018-08-17T15:22:22.275Z,38.10
2018-08-17T15:24:50.755Z,37.80
2018-08-17T15:27:19.130Z,38.50
2018-08-17T15:29:47.606Z,38.70
2018-08-17T15:32:15.985Z,40.10
2018-08-17T15:34:44.811Z,40.70
2018-08-17T15:37:12.918Z,41.00
2018-08-17T15:39:41.691Z,41.40
2018-08-17T15:42:10.156Z,41.70
2018-08-17T15:44:38.597Z,41.60
2018-08-17T15:47:06.849Z,43.00
2018-08-17T15:49:36.450Z,42.80
2018-08-17T15:52:05.923Z,43.00
2018-08-17T15:54:34.606Z,43.50
2018-08-17T15:57:03.009Z,43.30
2018-08-17T15:59:31.155Z,43.50
2018-08-17T16:01:59.202Z,43.60
2018-08-17T16:04:27.947Z,43.70
2018-08-17T16:06:56.405Z,44.10
2018-08-17T16:09:24.872Z,44.70
2018-08-17T16:11:53.729Z,44.80
2018-08-17T16:14:22.503Z,44.80
2018-08-17T16:16:51.281Z,45.10
2018-08-17T16:19:19.385Z,45.30
2018-08-17T16:21:48.282Z,45.60
2018-08-17T16:24:16.777Z,46.40
2018-08-17T16:26:44.870Z,46.00
2018-08-17T16:29:13.639Z,46.10
2018-08-17T16:31:42.636Z,46.40
2018-08-17T16:34:11.061Z,46.70
2018-08-17T16:36:41.005Z,46.30
2018-08-17T16:39:13.841Z,46.40
2018-08-17T16:41:41.968Z,46.30
2018-08-17T16:44:10.578Z,46.60
2018-08-17T16:46:40.472Z,47.10
2018-08-17T16:49:08.740Z,47.00
2018-08-17T16:51:37.013Z,47.30
2018-08-17T16:54:05.211Z,47.60
2018-08-17T16:56:34.023Z,48.10
2018-08-17T16:59:03.003Z,49.30
2018-08-17T17:01:31.786Z,50.00
2018-08-17T17:04:00.567Z,50.70
2018-08-17T17:06:29.416Z,51.30
2018-08-17T17:08:59.448Z,51.60
2018-08-17T17:11:28.251Z,53.20
2018-08-17T17:13:56.723Z,54.00
2018-08-17T17:16:34.028Z,55.00
2018-08-17T17:19:02.243Z,55.70
2018-08-17T17:21:31.020Z,55.90
2018-08-17T17:24:00.192Z,56.20
2018-08-17T17:26:28.676Z,56.90
2018-08-17T17:28:57.450Z,56.80
2018-08-17T17:31:26.189Z,57.30
2018-08-17T17:33:54.604Z,58.00
2018-08-17T17:36:23.260Z,58.50
2018-08-17T17:38:52.058Z,59.00
2018-08-17T17:41:20.491Z,60.00
2018-08-17T17:43:49.245Z,61.00
2018-08-17T17:46:17.650Z,61.00
2018-08-17T17:48:46.484Z,61.20
2018-08-17T17:51:14.983Z,61.70
2018-08-17T17:53:43.121Z,62.40
2018-08-17T17:56:11.676Z,62.80
2018-08-17T17:58:40.438Z,63.30
2018-08-17T18:01:10.207Z,63.90
2018-08-17T18:03:39.692Z,64.60
2018-08-17T18:06:08.754Z,64.40
2018-08-17T18:08:37.239Z,64.50
2018-08-17T18:11:05.703Z,64.60
2018-08-17T18:13:34.504Z,64.70
2018-08-17T18:16:02.977Z,65.60
2018-08-17T18:18:31.222Z,64.90
2018-08-17T18:20:59.404Z,65.20
2018-08-17T18:23:27.858Z,65.30
2018-08-17T18:25:56.333Z,65.70
2018-08-17T18:28:24.760Z,66.20
2018-08-17T18:30:52.980Z,66.50
2018-08-17T18:33:21.513Z,66.40
2018-08-17T18:35:50.321Z,66.60
2018-08-17T18:38:19.364Z,66.20
2018-08-17T18:40:47.478Z,67.10
2018-08-17T18:43:16.216Z,66.90
2018-08-17T18:45:44.743Z,67.10
2018-08-17T18:48:13.519Z,67.40
2018-08-17T18:50:42.157Z,67.80
2018-08-17T18:53:10.604Z,68.00
2018-08-17T18:55:39.323Z,68.20
2018-08-17T18:58:08.041Z,68.40
2018-08-17T19:00:36.506Z,68.70
2018-08-17T19:03:04.695Z,68.90
2018-08-17T19:05:33.105Z,69.50
2018-08-17T19:08:01.858Z,69.50
2018-08-17T19:10:30.777Z,70.20
2018-08-17T19:12:59.963Z,70.80
2018-08-17T19:15:28.003Z,71.20
2018-08-17T19:17:56.694Z,71.70
2018-08-17T19:20:24.799Z,72.20
2018-08-17T19:22:53.689Z,72.50
2018-08-17T19:25:22.105Z,72.90
2018-08-17T19:27:50.545Z,73.90
2018-08-17T19:30:26.231Z,74.40
2018-08-17T19:32:55.918Z,75.00
2018-08-17T19:35:24.754Z,76.70
2018-08-17T19:37:53.267Z,77.20
2018-08-17T19:40:22.601Z,77.80
2018-08-17T19:42:51.061Z,78.20
2018-08-17T19:45:19.671Z,79.30
2018-08-17T19:47:48.491Z,80.40
2018-08-17T19:50:16.879Z,81.40
2018-08-17T19:52:45.311Z,82.70
2018-08-17T19:55:13.650Z,84.10
2018-08-17T19:57:42.462Z,84.70
2018-08-17T20:00:11.856Z,85.30
2018-08-17T20:02:40.283Z,86.00
2018-08-17T20:05:08.518Z,86.40
2018-08-17T20:07:37.879Z,86.70
2018-08-17T20:10:07.202Z,87.90
2018-08-17T20:12:35.240Z,89.30
2018-08-17T20:15:05.163Z,90.00
2018-08-17T20:17:33.659Z,90.40
2018-08-17T20:20:02.083Z,90.90
2018-08-17T20:22:30.523Z,91.30
2018-08-17T20:24:58.613Z,92.00
2018-08-17T20:27:26.734Z,93.00
2018-08-17T20:30:00.432Z,93.90
2018-08-17T20:32:28.870Z,94.60
2018-08-17T20:34:56.991Z,95.80
2018-08-17T20:37:25.816Z,96.60
2018-08-17T20:39:54.257Z,97.50
2018-08-17T20:42:22.996Z,98.00
2018-08-17T20:44:51.819Z,99.10
2018-08-17T20:47:20.192Z,99.80
2018-08-17T20:49:48.629Z,99.90
2018-08-17T20:52:17.033Z,99.90
2018-08-17T20:54:45.779Z,99.70
2018-08-17T20:57:14.225Z,99.90
2018-08-17T20:59:42.983Z,99.50
2018-08-17T21:02:12.101Z,99.70
2018-08-17T21:04:40.889Z,99.30
2018-08-17T21:07:09.359Z,99.00
2018-08-17T21:09:38.396Z,99.00
2018-08-17T21:12:07.178Z,98.30
2018-08-17T21:14:36.282Z,98.20
2018-08-17T21:17:04.995Z,97.90
2018-08-17T21:19:39.150Z,98.20
2018-08-17T21:22:07.839Z,98.20
2018-08-17T21:24:37.036Z,99.50
2018-08-17T21:27:05.603Z,99.90
2018-08-17T21:29:34.177Z,99.90
2018-08-17T21:32:02.812Z,99.90
2018-08-17T21:34:32.393Z,99.90
2018-08-17T21:37:01.206Z,99.90
2018-08-17T21:39:29.675Z,99.90
2018-08-17T21:41:58.126Z,99.90
2018-08-17T21:44:26.617Z,99.90
2018-08-17T21:47:00.820Z,99.90
2018-08-17T21:49:29.624Z,99.90
2018-08-17T21:52:01.159Z,99.90
2018-08-17T21:54:32.392Z,99.90
2018-08-17T21:57:01.654Z,99.90
2018-08-17T21:59:35.715Z,99.90
2018-08-17T22:02:05.219Z,99.90
2018-08-17T22:04:33.935Z,99.90
2018-08-17T22:07:05.839Z,99.90
2018-08-17T22:09:37.931Z,99.90
2018-08-17T22:12:07.101Z,99.90
2018-08-17T22:14:35.240Z,99.90
2018-08-17T22:19:55.050Z,99.90
2018-08-17T22:22:23.524Z,99.90
2018-08-17T22:24:52.644Z,99.90
2018-08-17T22:27:21.441Z,99.90
2018-08-17T22:29:51.184Z,99.90
2018-08-17T22:32:20.252Z,99.90
2018-08-17T22:34:48.679Z,99.90
2018-08-17T22:37:16.899Z,99.90
2018-08-17T22:39:45.085Z,99.90
2018-08-17T22:42:14.145Z,99.90
2018-08-17T22:44:42.801Z,99.90
2018-08-17T22:47:21.703Z,99.90
2018-08-17T22:49:51.045Z,99.90
2018-08-17T22:52:19.238Z,99.90
2018-08-17T22:54:56.194Z,99.90
2018-08-17T22:57:25.464Z,99.90
2018-08-17T23:00:10.100Z,99.90
2018-08-17T23:02:39.238Z,99.90
2018-08-17T23:05:10.616Z,99.90
2018-08-17T23:07:39.846Z,99.90
2018-08-17T23:10:13.148Z,99.90
2018-08-17T23:12:42.437Z,99.90
2018-08-17T23:15:12.342Z,99.90
2018-08-17T23:17:42.041Z,99.90
2018-08-17T23:20:10.287Z,99.90
2018-08-17T23:22:45.143Z,99.90
2018-08-17T23:25:13.922Z,99.90
2018-08-17T23:27:43.204Z,99.90
2018-08-17T23:30:11.808Z,99.90
2018-08-17T23:32:40.606Z,99.90
2018-08-17T23:35:09.092Z,99.90
2018-08-17T23:37:38.228Z,99.90
2018-08-17T23:40:07.718Z,99.90
2018-08-17T23:42:36.787Z,99.90
2018-08-17T23:45:06.230Z,99.90
2018-08-17T23:47:34.657Z,99.90
2018-08-17T23:50:03.548Z,99.90
2018-08-17T23:52:32.218Z,99.90
2018-08-17T23:55:01.112Z,99.90
2018-08-17T23:57:29.829Z,99.90
2018-08-17T23:59:58.944Z,99.90
